Time;durP1;ratioP1;P1;durP2;ratioP2;P2;SDS_P1;SDS_P2;PMS_P1;PMS_P2;Temp;Humidity;BMP_temperature;BMP_pressure;BME280_temperature;BME280_humidity;BME280_pressure;Samples;Min_cycle;Max_cycle;Signal;HPM_P1;HPM_P2
2023/09/02 00:01:46;;;;;;;4.43;1.08;;;14.10;99.90;;;;;;5114136;28;20091;-82
2023/09/02 00:04:32;;;;;;;6.03;1.10;;;14.10;99.90;;;;;;5114341;28;20061;-81
2023/09/02 00:07:18;;;;;;;3.67;1.27;;;14.00;99.90;;;;;;5114197;28;20078;-82
2023/09/02 00:10:05;;;;;;;2.60;1.20;;;13.90;99.90;;;;;;5114222;28;20410;-79
2023/09/02 00:12:51;;;;;;;5.53;1.25;;;13.90;99.90;;;;;;5114066;28;20052;-83
2023/09/02 00:15:37;;;;;;;3.65;1.30;;;13.90;99.90;;;;;;5114218;28;20048;-82
2023/09/02 00:18:23;;;;;;;4.82;1.17;;;13.90;99.90;;;;;;5113276;28;20082;-81
2023/09/02 00:21:11;;;;;;;5.80;1.40;;;13.80;99.90;;;;;;5112511;28;20076;-71
2023/09/02 00:24:02;;;;;;;3.40;1.20;;;13.80;99.90;;;;;;5112977;28;20066;-70
2023/09/02 00:26:48;;;;;;;3.03;1.10;;;13.80;99.90;;;;;;5113981;28;20059;-72
2023/09/02 00:29:34;;;;;;;3.63;1.17;;;13.70;99.90;;;;;;5114265;28;20040;-78
2023/09/02 00:32:20;;;;;;;3.80;1.48;;;13.70;99.90;;;;;;5111861;28;20134;-77
2023/09/02 00:35:07;;;;;;;3.70;1.30;;;13.70;99.90;;;;;;5112228;28;20047;-82
2023/09/02 00:37:53;;;;;;;2.67;1.05;;;13.60;99.90;;;;;;5112338;28;20546;-83
2023/09/02 00:40:42;;;;;;;2.60;0.90;;;13.60;99.90;;;;;;5116933;28;20052;-78
2023/09/02 00:43:29;;;;;;;5.15;1.27;;;13.60;99.90;;;;;;5113239;28;20060;-82
2023/09/02 00:46:15;;;;;;;2.97;1.27;;;13.60;99.90;;;;;;5112117;28;20054;-80
2023/09/02 00:49:01;;;;;;;2.42;0.98;;;13.50;99.90;;;;;;5112857;28;20079;-82
2023/09/02 00:51:47;;;;;;;2.75;0.95;;;13.50;99.90;;;;;;5113245;28;20392;-81
2023/09/02 00:54:33;;;;;;;3.33;1.20;;;13.40;99.90;;;;;;5112186;28;20137;-83
2023/09/02 00:57:19;;;;;;;5.97;1.08;;;13.40;99.90;;;;;;5112779;28;20495;-71
2023/09/02 01:00:06;;;;;;;2.88;1.10;;;13.40;99.90;;;;;;5112501;28;20048;-82
2023/09/02 01:02:52;;;;;;;2.13;0.93;;;13.40;99.90;;;;;;5111870;28;20048;-83
2023/09/02 01:05:38;;;;;;;2.95;1.20;;;13.30;99.90;;;;;;5111504;28;20143;-71
2023/09/02 01:08:26;;;;;;;4.00;1.10;;;13.30;99.90;;;;;;5111732;28;20081;-71
2023/09/02 01:11:12;;;;;;;4.00;1.00;;;13.30;99.90;;;;;;5110508;28;20121;-82
2023/09/02 01:13:58;;;;;;;4.78;1.40;;;13.20;99.90;;;;;;5112500;28;20565;-74
2023/09/02 01:16:44;;;;;;;3.58;1.10;;;13.20;99.90;;;;;;5112235;28;20047;-75
2023/09/02 01:19:30;;;;;;;2.72;1.08;;;13.20;99.90;;;;;;5111592;28;20143;-70
2023/09/02 01:22:37;;;;;;;5.50;1.40;;;13.20;99.90;;;;;;5111633;28;20062;-71
2023/09/02 01:25:51;;;;;;;2.42;1.00;;;13.10;99.90;;;;;;5111144;28;20063;-72
2023/09/02 01:28:41;;;;;;;4.45;1.33;;;13.10;99.90;;;;;;5110536;28;20054;-76
2023/09/02 01:31:29;;;;;;;3.13;0.85;;;13.10;99.90;;;;;;5111489;28;20047;-71
2023/09/02 01:34:18;;;;;;;2.78;1.20;;;13.10;99.90;;;;;;5113293;28;20079;-76
2023/09/02 01:37:07;;;;;;;2.83;0.93;;;13.10;99.90;;;;;;5111302;28;20146;-73
2023/09/02 01:39:57;;;;;;;5.88;1.85;;;13.00;99.90;;;;;;5112407;28;20380;-79
2023/09/02 01:42:43;;;;;;;3.63;1.27;;;13.00;99.90;;;;;;5111261;28;20051;-74
2023/09/02 01:45:36;;;;;;;5.35;1.67;;;13.00;99.90;;;;;;5110939;28;20047;-80
2023/09/02 01:48:23;;;;;;;3.60;1.00;;;13.00;99.90;;;;;;5111884;28;20414;-73
2023/09/02 01:51:11;;;;;;;4.10;1.50;;;13.00;99.90;;;;;;5110791;28;20047;-72
2023/09/02 01:53:57;;;;;;;4.30;1.08;;;13.00;99.90;;;;;;5112155;28;20050;-74
2023/09/02 01:56:44;;;;;;;4.10;1.40;;;12.90;99.90;;;;;;5110752;28;20040;-79
2023/09/02 01:59:30;;;;;;;2.90;1.05;;;12.90;99.90;;;;;;5110049;28;20048;-82
2023/09/02 02:02:16;;;;;;;3.90;1.30;;;12.90;99.90;;;;;;5110895;28;20066;-83
2023/09/02 02:05:06;;;;;;;4.25;1.35;;;12.90;99.90;;;;;;5110756;28;20048;-83
2023/09/02 02:07:58;;;;;;;4.78;1.73;;;12.90;99.90;;;;;;5112704;28;20138;-82
2023/09/02 02:10:45;;;;;;;4.75;1.73;;;12.90;99.90;;;;;;5111714;28;20090;-82
2023/09/02 02:13:32;;;;;;;3.95;1.65;;;12.90;99.90;;;;;;5112148;28;20047;-83
2023/09/02 02:16:22;;;;;;;3.50;1.65;;;12.90;99.90;;;;;;5110607;28;20047;-80
2023/09/02 02:19:08;;;;;;;3.58;1.77;;;12.90;99.90;;;;;;5110182;28;20158;-78
2023/09/02 02:21:54;;;;;;;2.75;1.30;;;12.90;99.90;;;;;;5109102;28;20120;-71
2023/09/02 02:24:40;;;;;;;4.80;1.73;;;12.80;99.90;;;;;;5110294;28;20051;-79
2023/09/02 02:27:26;;;;;;;3.42;1.50;;;12.80;99.90;;;;;;5112041;28;20474;-76
2023/09/02 02:30:12;;;;;;;3.85;1.42;;;12.80;99.90;;;;;;5110458;28;20044;-78
2023/09/02 02:32:59;;;;;;;3.38;1.10;;;12.80;99.90;;;;;;5110529;28;20051;-73
2023/09/02 02:35:45;;;;;;;5.03;1.58;;;12.80;99.90;;;;;;5111358;28;20087;-79
2023/09/02 02:38:31;;;;;;;5.20;1.52;;;12.80;99.90;;;;;;5110241;28;20051;-76
2023/09/02 02:41:17;;;;;;;7.45;1.60;;;12.80;99.90;;;;;;5110534;28;20055;-71
2023/09/02 02:44:03;;;;;;;3.78;1.38;;;12.70;99.90;;;;;;5111435;28;20047;-70
2023/09/02 02:46:50;;;;;;;3.75;1.30;;;12.70;99.90;;;;;;5110929;28;20487;-71
2023/09/02 02:49:36;;;;;;;3.58;1.70;;;12.70;99.90;;;;;;5111135;28;20052;-74
2023/09/02 02:52:21;;;;;;;3.03;1.40;;;12.70;99.90;;;;;;5110103;28;20040;-73
2023/09/02 02:55:08;;;;;;;3.40;1.30;;;12.70;99.90;;;;;;5109366;28;20494;-76
2023/09/02 02:57:54;;;;;;;5.53;1.55;;;12.70;99.90;;;;;;5110744;28;20530;-76
2023/09/02 03:00:40;;;;;;;5.35;1.45;;;12.70;99.90;;;;;;5110025;28;20105;-74
2023/09/02 03:03:26;;;;;;;7.53;1.60;;;12.60;99.90;;;;;;5094603;28;20067;-70
2023/09/02 03:06:17;;;;;;;7.50;1.80;;;12.60;99.90;;;;;;5110917;28;20052;-75
2023/09/02 03:09:04;;;;;;;5.18;1.50;;;12.60;99.90;;;;;;5110589;28;20132;-78
2023/09/02 03:11:50;;;;;;;5.35;2.05;;;12.60;99.90;;;;;;5111258;28;20056;-73
2023/09/02 03:14:36;;;;;;;3.90;1.48;;;12.60;99.90;;;;;;5109893;28;20059;-70
2023/09/02 03:17:22;;;;;;;3.90;1.60;;;12.60;99.90;;;;;;5109783;28;20044;-72
2023/09/02 03:20:09;;;;;;;3.05;1.40;;;12.60;99.90;;;;;;5109615;28;20448;-72
2023/09/02 03:22:56;;;;;;;5.30;1.38;;;12.60;99.90;;;;;;5110708;28;20060;-72
2023/09/02 03:25:42;;;;;;;4.60;1.42;;;12.50;99.90;;;;;;5110319;28;20131;-71
2023/09/02 03:28:28;;;;;;;2.60;1.38;;;12.50;99.90;;;;;;5109268;28;20055;-81
2023/09/02 03:31:14;;;;;;;4.07;1.65;;;12.50;99.90;;;;;;5111598;28;20059;-73
2023/09/02 03:34:00;;;;;;;3.85;1.88;;;12.50;99.90;;;;;;5110797;28;20445;-74
2023/09/02 03:36:46;;;;;;;4.78;1.45;;;12.40;99.90;;;;;;5107847;28;20587;-71
2023/09/02 03:39:33;;;;;;;3.00;1.15;;;12.40;99.90;;;;;;5110463;28;20056;-71
2023/09/02 03:42:19;;;;;;;3.42;1.30;;;12.40;99.90;;;;;;5110559;28;20510;-72
2023/09/02 03:45:06;;;;;;;7.20;1.45;;;12.40;99.90;;;;;;5110548;28;20101;-70
2023/09/02 03:47:52;;;;;;;4.03;1.83;;;12.30;99.90;;;;;;5111045;28;20090;-74
2023/09/02 03:50:58;;;;;;;2.92;1.20;;;12.30;99.90;;;;;;5109519;28;20047;-71
2023/09/02 03:53:45;;;;;;;5.20;1.60;;;12.30;99.90;;;;;;5110447;28;20105;-70
2023/09/02 03:56:36;;;;;;;3.50;1.30;;;12.30;99.90;;;;;;5113863;28;20526;-72
2023/09/02 03:59:22;;;;;;;3.50;1.38;;;12.20;99.90;;;;;;5113130;28;20047;-73
2023/09/02 04:02:08;;;;;;;3.45;1.70;;;12.20;99.90;;;;;;5113565;28;20044;-75
2023/09/02 04:04:54;;;;;;;4.03;1.30;;;12.20;99.90;;;;;;5114198;28;20109;-70
2023/09/02 04:07:40;;;;;;;3.97;1.40;;;12.20;99.90;;;;;;5113110;28;20036;-70
2023/09/02 04:10:27;;;;;;;5.68;1.58;;;12.20;99.90;;;;;;5113764;28;20070;-73
2023/09/02 04:13:13;;;;;;;7.03;1.48;;;12.20;99.90;;;;;;5097465;28;20181;-74
2023/09/02 04:16:03;;;;;;;3.63;1.48;;;12.10;99.90;;;;;;5112544;28;20388;-77
2023/09/02 04:18:49;;;;;;;8.48;1.60;;;12.20;99.90;;;;;;5113718;28;20055;-74
2023/09/02 04:21:35;;;;;;;3.72;1.40;;;12.10;99.90;;;;;;5113716;28;20047;-77
2023/09/02 04:24:21;;;;;;;5.93;1.88;;;12.10;99.90;;;;;;5110842;28;20502;-71
2023/09/02 04:27:07;;;;;;;6.20;1.77;;;12.10;99.90;;;;;;5113717;28;20056;-69
2023/09/02 04:29:53;;;;;;;4.70;1.70;;;12.10;99.90;;;;;;5097232;28;20052;-73
2023/09/02 04:32:39;;;;;;;4.47;1.70;;;12.10;99.90;;;;;;5112643;28;20049;-71
2023/09/02 04:35:25;;;;;;;7.93;2.40;;;12.10;99.90;;;;;;5112292;28;20064;-71
2023/09/02 04:38:11;;;;;;;5.50;1.85;;;12.10;99.90;;;;;;5111245;28;20176;-70
2023/09/02 04:41:01;;;;;;;8.90;2.03;;;12.00;99.90;;;;;;5111929;28;20487;-75
2023/09/02 04:43:48;;;;;;;4.32;1.52;;;12.00;99.90;;;;;;5113658;27;20055;-73
2023/09/02 04:46:34;;;;;;;2.90;1.38;;;12.00;99.90;;;;;;5113026;28;20105;-70
2023/09/02 04:49:20;;;;;;;7.13;2.25;;;12.00;99.90;;;;;;5111493;28;20054;-76
2023/09/02 04:52:06;;;;;;;9.85;2.35;;;12.10;99.90;;;;;;5111061;28;20488;-78
2023/09/02 04:54:53;;;;;;;7.18;1.85;;;12.10;99.90;;;;;;5112281;28;20052;-74
2023/09/02 04:57:39;;;;;;;4.25;1.35;;;12.10;99.90;;;;;;5111468;28;20135;-72
2023/09/02 05:00:27;;;;;;;3.05;1.27;;;12.10;99.90;;;;;;5112373;28;20139;-73
2023/09/02 05:03:13;;;;;;;7.55;2.00;;;12.00;99.90;;;;;;5111801;28;20087;-76
2023/09/02 05:06:00;;;;;;;5.45;1.30;;;12.10;99.90;;;;;;5111770;28;20471;-75
2023/09/02 05:08:46;;;;;;;5.30;1.38;;;12.00;99.90;;;;;;5111967;28;20593;-72
2023/09/02 05:11:32;;;;;;;5.10;2.13;;;12.00;99.90;;;;;;5113313;28;20452;-72
2023/09/02 05:14:18;;;;;;;7.15;2.75;;;12.10;99.90;;;;;;5112856;28;20058;-70
2023/09/02 05:17:04;;;;;;;4.82;1.40;;;12.10;99.90;;;;;;5111784;28;20047;-71
2023/09/02 05:19:50;;;;;;;3.20;1.40;;;12.10;99.90;;;;;;5111781;28;20059;-71
2023/09/02 05:22:37;;;;;;;2.78;1.05;;;12.10;99.90;;;;;;5112471;28;20067;-71
2023/09/02 05:25:25;;;;;;;5.28;1.60;;;12.10;99.90;;;;;;5112646;28;20044;-71
2023/09/02 05:28:11;;;;;;;3.30;1.10;;;12.10;99.90;;;;;;5112411;28;20051;-75
2023/09/02 05:30:57;;;;;;;4.57;1.13;;;12.20;99.90;;;;;;5113516;28;20054;-70
2023/09/02 05:33:44;;;;;;;2.58;1.30;;;12.20;99.90;;;;;;5111116;28;20062;-71
2023/09/02 05:36:30;;;;;;;2.28;1.10;;;12.30;99.90;;;;;;5112397;28;20047;-72
2023/09/02 05:39:16;;;;;;;3.67;1.48;;;12.40;99.90;;;;;;5112315;28;20048;-70
2023/09/02 05:42:02;;;;;;;2.85;0.93;;;12.50;99.90;;;;;;5111052;28;20497;-77
2023/09/02 05:44:48;;;;;;;3.33;0.95;;;12.50;99.90;;;;;;5112766;28;20054;-72
2023/09/02 05:47:34;;;;;;;3.10;1.05;;;12.60;99.90;;;;;;5112417;28;20139;-72
2023/09/02 05:50:21;;;;;;;4.15;1.08;;;12.60;99.90;;;;;;5111315;28;20677;-76
2023/09/02 05:53:07;;;;;;;7.68;1.25;;;12.70;99.90;;;;;;5111654;28;20047;-75
2023/09/02 05:55:54;;;;;;;4.10;1.45;;;12.70;99.90;;;;;;5111705;28;20600;-71
2023/09/02 05:58:40;;;;;;;5.47;1.60;;;12.80;99.90;;;;;;5110620;28;20055;-71
2023/09/02 06:01:26;;;;;;;6.60;1.25;;;12.80;99.90;;;;;;5110710;28;20052;-79
2023/09/02 06:08:13;;;;;;;5.35;1.65;;;13.00;99.90;;;;;;5110696;28;20073;-73
2023/09/02 06:10:59;;;;;;;4.82;1.30;;;13.10;99.90;;;;;;5111726;28;20047;-79
2023/09/02 06:13:46;;;;;;;2.25;0.90;;;13.30;99.90;;;;;;5111493;28;20317;-74
2023/09/02 06:16:31;;;;;;;4.45;1.23;;;13.40;99.90;;;;;;5111490;28;20051;-73
2023/09/02 06:19:18;;;;;;;4.68;1.20;;;13.50;99.90;;;;;;5109849;28;20043;-73
2023/09/02 06:22:04;;;;;;;2.75;0.90;;;13.60;99.90;;;;;;5111103;28;20052;-75
2023/09/02 06:24:51;;;;;;;3.45;1.20;;;13.80;99.90;;;;;;5110412;28;20043;-75
2023/09/02 06:27:38;;;;;;;5.32;1.52;;;13.90;99.90;;;;;;5111436;28;20079;-71
2023/09/02 06:30:24;;;;;;;6.07;1.38;;;14.10;99.90;;;;;;5110285;28;20152;-70
2023/09/02 06:33:10;;;;;;;3.50;1.20;;;14.20;99.90;;;;;;5110333;28;20093;-71
2023/09/02 06:35:56;;;;;;;5.28;1.55;;;14.40;99.90;;;;;;5111507;28;20047;-71
2023/09/02 06:38:43;;;;;;;5.80;1.65;;;14.60;99.90;;;;;;5111005;28;20066;-77
2023/09/02 06:41:29;;;;;;;3.50;1.52;;;14.80;99.90;;;;;;5112189;28;20160;-75
2023/09/02 06:44:15;;;;;;;4.93;1.63;;;15.10;99.90;;;;;;5111396;28;20066;-78
2023/09/02 06:47:01;;;;;;;4.43;1.55;;;15.30;99.90;;;;;;5116428;28;20051;-77
2023/09/02 06:49:47;;;;;;;5.20;1.45;;;15.50;99.90;;;;;;5117567;28;20052;-84
2023/09/02 06:52:33;;;;;;;5.63;1.70;;;15.80;99.90;;;;;;5111244;28;20055;-79
2023/09/02 06:55:19;;;;;;;9.48;2.55;;;16.00;99.90;;;;;;5111679;28;20057;-80
2023/09/02 06:58:05;;;;;;;3.33;1.27;;;16.10;99.90;;;;;;5110418;28;20108;-84
2023/09/02 07:00:52;;;;;;;4.57;1.48;;;16.30;99.90;;;;;;5109827;28;20039;-76
2023/09/02 07:03:38;;;;;;;4.93;1.55;;;16.50;99.90;;;;;;5110128;28;20081;-76
2023/09/02 07:06:24;;;;;;;3.35;1.30;;;16.70;99.90;;;;;;5110950;28;20070;-80
2023/09/02 07:09:10;;;;;;;3.50;1.20;;;16.90;99.90;;;;;;5109789;28;20052;-82
2023/09/02 07:11:56;;;;;;;4.25;1.20;;;17.10;99.90;;;;;;5110944;28;20063;-73
2023/09/02 07:14:42;;;;;;;3.72;1.13;;;17.30;99.90;;;;;;5109796;28;20116;-80
2023/09/02 07:17:28;;;;;;;3.53;1.40;;;17.40;99.90;;;;;;5110852;28;20059;-79
2023/09/02 07:20:14;;;;;;;5.85;1.83;;;17.50;99.90;;;;;;5111328;28;20050;-76
2023/09/02 07:23:01;;;;;;;4.50;1.20;;;17.70;99.90;;;;;;5109338;28;20130;-78
2023/09/02 07:25:47;;;;;;;3.88;1.02;;;17.90;99.90;;;;;;5109357;28;20043;-81
2023/09/02 07:28:33;;;;;;;4.18;1.40;;;18.10;99.90;;;;;;5108197;28;20576;-75
2023/09/02 07:31:20;;;;;;;5.45;1.35;;;18.20;99.90;;;;;;5114416;28;20050;-76
2023/09/02 07:34:06;;;;;;;3.10;1.10;;;18.40;99.90;;;;;;5115036;28;20047;-76
2023/09/02 07:36:52;;;;;;;5.38;1.75;;;18.50;99.90;;;;;;5114974;28;20134;-78
2023/09/02 07:39:38;;;;;;;4.57;1.30;;;18.60;99.90;;;;;;5114774;28;20043;-75
2023/09/02 07:42:24;;;;;;;4.25;1.30;;;18.80;99.90;;;;;;5114694;28;20052;-79
2023/09/02 07:45:11;;;;;;;4.85;1.70;;;19.00;99.90;;;;;;5114767;28;20547;-74
2023/09/02 07:47:57;;;;;;;5.53;1.40;;;19.10;99.90;;;;;;5098185;28;20051;-80
2023/09/02 07:50:43;;;;;;;5.15;1.38;;;19.20;99.90;;;;;;5114801;28;20079;-73
2023/09/02 07:53:29;;;;;;;5.20;1.58;;;19.40;99.90;;;;;;5113905;28;20095;-74
2023/09/02 07:56:15;;;;;;;7.30;1.60;;;19.40;99.90;;;;;;5113829;28;20058;-72
2023/09/02 07:59:02;;;;;;;6.35;1.95;;;19.60;99.90;;;;;;5111453;28;20109;-74
2023/09/02 08:01:48;;;;;;;3.60;1.35;;;19.70;99.90;;;;;;5114323;28;20047;-73
2023/09/02 08:04:34;;;;;;;5.28;2.03;;;19.90;99.90;;;;;;5114182;28;20044;-74
2023/09/02 08:07:20;;;;;;;4.65;2.10;;;20.00;99.90;;;;;;5112911;28;20056;-74
2023/09/02 08:10:06;;;;;;;7.78;2.22;;;20.10;99.90;;;;;;5114303;28;20183;-73
2023/09/02 08:12:52;;;;;;;5.60;2.30;;;20.30;99.90;;;;;;5112832;28;20079;-71
2023/09/02 08:15:39;;;;;;;3.90;1.58;;;20.40;99.90;;;;;;5111857;28;20044;-71
2023/09/02 08:18:25;;;;;;;4.13;1.80;;;20.40;99.90;;;;;;5113974;28;20081;-73
2023/09/02 08:21:11;;;;;;;6.07;0.90;;;20.50;99.90;;;;;;5112612;28;20051;-73
2023/09/02 08:23:57;;;;;;;4.35;0.70;;;20.70;99.90;;;;;;5084172;28;20051;-74
2023/09/02 08:26:43;;;;;;;2.15;0.65;;;20.70;99.90;;;;;;5114475;28;20059;-70
2023/09/02 08:29:30;;;;;;;2.90;0.80;;;20.90;99.90;;;;;;5113446;28;20404;-73
2023/09/02 08:32:16;;;;;;;2.65;0.80;;;21.10;99.90;;;;;;5112374;28;20070;-71
2023/09/02 08:35:02;;;;;;;3.20;0.80;;;21.10;99.90;;;;;;5114026;28;20058;-74
2023/09/02 08:37:51;;;;;;;3.75;0.88;;;21.30;99.90;;;;;;5114723;28;20051;-73
2023/09/02 08:40:44;;;;;;;3.03;1.10;;;21.30;99.90;;;;;;5111313;28;20395;-70
2023/09/02 08:43:31;;;;;;;3.25;0.80;;;21.50;99.90;;;;;;5113460;28;20052;-72
2023/09/02 08:46:19;;;;;;;2.70;0.60;;;21.50;99.90;;;;;;5113546;28;20047;-70
2023/09/02 08:49:05;;;;;;;1.45;0.60;;;21.70;99.90;;;;;;5113444;28;20048;-73
2023/09/02 08:51:52;;;;;;;2.88;0.70;;;21.90;99.90;;;;;;5113242;28;20055;-75
2023/09/02 08:54:40;;;;;;;3.60;0.70;;;22.10;99.90;;;;;;5111940;28;20510;-72
2023/09/02 08:57:27;;;;;;;2.13;0.70;;;22.10;99.90;;;;;;5113152;28;20075;-74
2023/09/02 09:00:13;;;;;;;3.03;0.60;;;22.20;99.90;;;;;;5112769;28;20491;-72
2023/09/02 09:03:01;;;;;;;2.53;0.73;;;22.20;99.90;;;;;;5112836;28;20086;-72
2023/09/02 09:05:48;;;;;;;2.88;1.02;;;22.30;99.90;;;;;;5113030;28;20144;-85
2023/09/02 09:08:35;;;;;;;2.83;0.75;;;22.50;99.90;;;;;;5111951;28;20048;-73
2023/09/02 09:11:22;;;;;;;2.17;0.90;;;22.50;99.90;;;;;;5112731;28;20464;-71
2023/09/02 09:14:22;;;;;;;3.92;0.60;;;22.50;99.90;;;;;;5111799;28;20047;-71
2023/09/02 09:17:08;;;;;;;3.38;1.27;;;22.40;99.90;;;;;;5111372;28;20087;-73
2023/09/02 09:19:56;;;;;;;3.25;0.90;;;22.50;99.90;;;;;;5111524;28;20043;-72
2023/09/02 09:22:43;;;;;;;4.60;1.27;;;22.60;99.90;;;;;;5112989;28;20086;-72
2023/09/02 09:25:29;;;;;;;3.55;1.00;;;22.70;99.60;;;;;;5113183;28;20146;-73
2023/09/02 09:28:15;;;;;;;3.58;1.42;;;22.90;99.90;;;;;;5111233;28;20167;-74
2023/09/02 09:31:15;;;;;;;3.67;1.08;;;23.00;99.40;;;;;;5110880;28;20055;-71
2023/09/02 09:34:02;;;;;;;3.88;1.17;;;23.20;99.10;;;;;;5112517;28;20512;-75
2023/09/02 09:36:57;;;;;;;4.88;1.20;;;23.40;99.20;;;;;;5111362;28;20448;-77
2023/09/02 09:39:45;;;;;;;;;;;23.40;98.10;;;;;;5113138;28;20048;-73
2023/09/02 09:42:35;;;;;;;4.63;1.13;;;23.30;96.90;;;;;;5113684;27;19962;-77
2023/09/02 09:45:21;;;;;;;3.78;1.38;;;23.40;98.50;;;;;;5096853;28;20604;-84
2023/09/02 09:48:10;;;;;;;4.18;1.17;;;23.60;98.50;;;;;;5096166;28;20408;-84
2023/09/02 09:50:57;;;;;;;4.05;1.55;;;23.90;98.40;;;;;;5112682;28;20158;-78
2023/09/02 09:53:46;;;;;;;3.42;1.10;;;23.90;97.40;;;;;;5111525;28;20058;-82
2023/09/02 09:56:32;;;;;;;2.33;0.80;;;23.80;97.10;;;;;;5111292;28;20081;-80
2023/09/02 09:59:18;;;;;;;3.78;1.20;;;24.00;97.70;;;;;;5112411;28;20105;-75
2023/09/02 10:02:06;;;;;;;2.72;0.95;;;23.80;97.50;;;;;;5109937;28;20066;-76
2023/09/02 10:04:56;;;;;;;3.03;0.80;;;24.00;97.60;;;;;;5112441;28;20531;-72
2023/09/02 10:07:43;;;;;;;4.03;1.00;;;24.30;97.70;;;;;;5112360;28;20062;-75
2023/09/02 10:10:32;;;;;;;4.25;0.88;;;24.40;97.40;;;;;;5110965;28;20040;-80
2023/09/02 10:13:19;;;;;;;3.22;1.05;;;24.50;96.60;;;;;;5111138;28;20054;-72
2023/09/02 10:16:05;;;;;;;4.05;1.17;;;24.60;96.50;;;;;;5111575;28;20395;-71
2023/09/02 10:18:51;;;;;;;3.67;1.00;;;24.90;96.10;;;;;;5095598;28;20082;-80
2023/09/02 10:21:40;;;;;;;2.85;0.88;;;25.00;95.90;;;;;;5111746;28;20083;-76
2023/09/02 10:24:34;;;;;;;4.03;1.00;;;25.30;96.10;;;;;;5109380;28;20439;-78
2023/09/02 10:27:24;;;;;;;4.28;0.60;;;25.50;94.90;;;;;;5110459;28;20058;-76
2023/09/02 10:30:25;;;;;;;2.97;0.65;;;25.30;94.90;;;;;;5110212;28;20183;-80
2023/09/02 10:33:34;;;;;;;4.22;1.13;;;25.30;94.90;;;;;;5110192;28;20048;-83
2023/09/02 10:36:23;;;;;;;3.53;0.90;;;25.50;95.60;;;;;;5109820;28;20078;-76
2023/09/02 10:39:18;;;;;;;3.08;0.80;;;25.60;95.10;;;;;;5109885;28;20105;-76
2023/09/02 10:42:05;;;;;;;3.88;0.75;;;25.70;94.80;;;;;;5109901;28;20070;-76
2023/09/02 10:44:52;;;;;;;4.38;0.80;;;25.90;94.70;;;;;;5111128;28;20051;-78
2023/09/02 10:47:39;;;;;;;3.78;0.80;;;26.10;94.80;;;;;;5109510;28;20079;-74
2023/09/02 10:50:26;;;;;;;2.88;0.70;;;26.10;94.00;;;;;;5109955;28;20088;-77
2023/09/02 10:53:12;;;;;;;4.80;1.15;;;26.20;93.50;;;;;;5110990;28;20048;-73
2023/09/02 10:56:02;;;;;;;2.60;1.30;;;26.50;94.10;;;;;;5108369;28;20082;-77
2023/09/02 10:58:48;;;;;;;4.60;1.08;;;26.80;93.50;;;;;;5111373;28;20058;-85
2023/09/02 11:01:48;;;;;;;3.33;0.73;;;26.90;92.40;;;;;;5111001;28;20057;-81
2023/09/02 11:04:40;;;;;;;3.28;0.57;;;27.00;92.10;;;;;;5111120;28;20055;-85
2023/09/02 11:07:26;;;;;;;2.60;0.80;;;27.20;91.60;;;;;;5112015;28;20504;-83
2023/09/02 11:10:13;;;;;;;3.63;0.88;;;27.10;92.30;;;;;;5114925;28;20051;-73
2023/09/02 11:13:05;;;;;;;3.30;0.90;;;27.40;92.50;;;;;;5110924;28;20058;-82
2023/09/02 11:16:27;;;;;;;2.38;1.10;;;27.50;91.90;;;;;;5110485;28;20086;-84
2023/09/02 11:19:13;;;;;;;1.42;0.50;;;27.70;90.40;;;;;;5048947;28;20068;-82
2023/09/02 11:21:59;;;;;;;4.85;0.70;;;28.00;91.80;;;;;;5109136;28;20051;-80
2023/09/02 11:24:48;;;;;;;3.55;0.80;;;28.00;90.60;;;;;;5111630;28;20414;-85
2023/09/02 11:27:45;;;;;;;2.28;0.80;;;27.90;89.40;;;;;;5111301;28;20112;-77
2023/09/02 11:30:37;;;;;;;2.85;0.80;;;28.20;88.30;;;;;;5109821;28;20392;-79
2023/09/02 11:33:23;;;;;;;2.28;0.50;;;28.30;88.40;;;;;;5110142;28;20688;-82
2023/09/02 11:36:17;;;;;;;2.40;0.70;;;28.50;87.40;;;;;;5112620;28;20060;-79
2023/09/02 11:39:07;;;;;;;3.08;0.60;;;28.60;87.60;;;;;;5107916;28;20768;-82
2023/09/02 11:42:10;;;;;;;2.85;0.88;;;29.10;88.50;;;;;;5110253;28;20631;-74
2023/09/02 11:45:00;;;;;;;2.20;0.70;;;29.30;84.30;;;;;;5108748;28;20212;-84
2023/09/02 11:47:48;;;;;;;5.32;0.70;;;29.70;86.70;;;;;;5109454;28;20134;-73
2023/09/02 11:50:37;;;;;;;2.90;0.57;;;29.80;85.30;;;;;;5110664;28;20056;-78
2023/09/02 11:53:25;;;;;;;1.30;0.35;;;30.10;84.20;;;;;;5109320;28;20384;-78
2023/09/02 11:56:11;;;;;;;2.22;0.70;;;29.80;82.60;;;;;;5109122;28;20043;-72
2023/09/02 11:58:57;;;;;;;3.08;0.80;;;29.80;83.50;;;;;;5111225;28;20070;-79
2023/09/02 12:01:43;;;;;;;4.32;1.42;;;30.10;83.10;;;;;;5109132;28;20491;-74
2023/09/02 12:04:39;;;;;;;1.23;0.40;;;30.30;82.60;;;;;;5113816;28;20083;-73
2023/09/02 12:07:26;;;;;;;1.75;0.50;;;30.40;80.30;;;;;;5110387;28;20058;-75
2023/09/02 12:14:13;;;;;;;2.22;0.68;;;30.80;77.60;;;;;;5110865;28;20042;-82
2023/09/02 12:16:59;;;;;;;3.22;0.70;;;31.00;77.90;;;;;;5112169;28;20063;-77
2023/09/02 12:20:08;;;;;;;1.50;0.55;;;30.90;77.00;;;;;;5113822;28;20047;-75
2023/09/02 12:22:55;;;;;;;2.50;0.50;;;30.70;73.50;;;;;;5114739;28;20044;-76
2023/09/02 12:25:41;;;;;;;1.67;0.60;;;30.90;75.70;;;;;;5113479;28;20460;-78
2023/09/02 12:28:29;;;;;;;2.75;0.60;;;31.00;74.70;;;;;;5112400;28;20511;-83
2023/09/02 12:31:17;;;;;;;2.22;0.70;;;31.30;73.40;;;;;;5113675;28;20407;-74
2023/09/02 12:34:03;;;;;;;1.48;0.82;;;31.70;74.60;;;;;;5113897;28;20079;-74
2023/09/02 12:36:49;;;;;;;1.98;0.47;;;31.90;72.70;;;;;;5113490;28;20090;-84
2023/09/02 12:39:35;;;;;;;1.42;0.50;;;32.10;72.90;;;;;;5112367;28;20487;-82
2023/09/02 12:42:26;;;;;;;1.50;0.55;;;32.00;71.10;;;;;;5113796;28;20391;-79
2023/09/02 12:45:12;;;;;;;4.53;0.60;;;32.30;72.20;;;;;;5113390;28;20047;-84
2023/09/02 12:48:01;;;;;;;1.67;0.45;;;32.60;70.90;;;;;;5112023;28;20193;-73
2023/09/02 12:50:47;;;;;;;1.92;0.40;;;32.70;72.40;;;;;;5112071;28;20055;-75
2023/09/02 12:53:33;;;;;;;1.75;0.50;;;33.00;69.30;;;;;;5114019;28;20055;-75
2023/09/02 12:56:19;;;;;;;2.55;0.82;;;33.20;67.70;;;;;;5113287;28;20170;-79
2023/09/02 12:59:06;;;;;;;2.70;0.60;;;33.40;67.90;;;;;;5114315;28;20124;-73
2023/09/02 13:01:52;;;;;;;1.75;0.50;;;33.60;67.50;;;;;;5111057;28;20052;-74
2023/09/02 13:04:39;;;;;;;3.20;0.60;;;33.90;65.80;;;;;;5113340;28;20067;-81
2023/09/02 13:07:25;;;;;;;1.42;0.47;;;34.10;65.60;;;;;;5113552;28;20115;-85
2023/09/02 13:10:13;;;;;;;1.67;0.60;;;34.60;64.10;;;;;;5097571;28;20054;-81
2023/09/02 13:12:59;;;;;;;2.05;0.50;;;34.70;62.40;;;;;;5110671;28;20121;-84
2023/09/02 13:15:45;;;;;;;3.42;0.73;;;35.10;62.50;;;;;;5110571;28;20055;-85
2023/09/02 13:18:31;;;;;;;1.95;0.50;;;35.10;61.40;;;;;;5111926;28;20047;-82
2023/09/02 13:21:17;;;;;;;3.22;0.60;;;35.60;60.90;;;;;;5113340;28;20142;-85
2023/09/02 13:24:03;;;;;;;2.00;0.80;;;36.30;60.90;;;;;;5113417;28;20043;-75
2023/09/02 13:26:50;;;;;;;2.20;0.70;;;36.80;59.80;;;;;;5117031;27;20456;-87
2023/09/02 13:29:36;;;;;;;3.20;0.90;;;36.80;58.60;;;;;;5113401;28;20052;-84
2023/09/02 13:32:24;;;;;;;1.92;0.65;;;36.90;57.70;;;;;;5113342;28;20052;-81
2023/09/02 13:35:17;;;;;;;2.35;0.63;;;37.30;57.30;;;;;;5111291;28;20540;-75
2023/09/02 13:38:03;;;;;;;2.63;0.57;;;37.30;57.10;;;;;;5112392;28;20099;-75
2023/09/02 13:40:49;;;;;;;1.67;0.55;;;37.40;56.90;;;;;;5110517;28;20048;-85
2023/09/02 13:43:35;;;;;;;1.63;0.50;;;37.90;56.50;;;;;;5112448;28;20060;-84
2023/09/02 13:46:21;;;;;;;2.10;0.60;;;37.90;55.50;;;;;;5111146;28;20048;-72
2023/09/02 13:49:11;;;;;;;1.27;0.47;;;38.00;55.20;;;;;;5112209;28;20039;-75
2023/09/02 13:51:58;;;;;;;1.23;0.60;;;38.20;54.90;;;;;;5111818;28;20055;-71
2023/09/02 13:54:45;;;;;;;1.77;0.70;;;38.50;54.30;;;;;;5111994;28;20131;-71
2023/09/02 13:57:31;;;;;;;3.40;0.93;;;38.80;53.70;;;;;;5112283;28;20055;-72
2023/09/02 14:00:24;;;;;;;1.95;0.60;;;38.90;53.40;;;;;;5111032;28;20047;-80
2023/09/02 14:03:20;;;;;;;1.77;0.70;;;38.80;53.80;;;;;;5110960;28;20043;-72
2023/09/02 14:06:06;;;;;;;1.27;0.43;;;38.80;52.50;;;;;;5111530;28;20613;-76
2023/09/02 14:08:52;;;;;;;1.38;0.40;;;38.90;52.60;;;;;;5111780;28;20404;-75
2023/09/02 14:11:38;;;;;;;2.40;0.70;;;39.10;53.10;;;;;;5110352;28;20216;-75
2023/09/02 14:14:24;;;;;;;2.00;0.63;;;39.00;52.20;;;;;;5110990;28;20055;-78
2023/09/02 14:17:10;;;;;;;1.92;0.75;;;39.40;52.00;;;;;;5111859;28;20059;-75
2023/09/02 14:19:56;;;;;;;1.85;0.52;;;39.50;52.90;;;;;;5110554;28;20522;-75
2023/09/02 14:22:43;;;;;;;2.42;0.52;;;39.50;51.90;;;;;;5114624;28;20062;-76
2023/09/02 14:25:29;;;;;;;1.77;0.60;;;39.50;51.50;;;;;;5111488;28;20047;-76
2023/09/02 14:28:15;;;;;;;2.10;0.60;;;39.60;50.10;;;;;;5108469;28;20044;-74
2023/09/02 14:31:01;;;;;;;3.25;1.08;;;39.60;49.90;;;;;;5110181;28;20059;-76
2023/09/02 14:33:47;;;;;;;1.67;0.65;;;39.60;49.80;;;;;;5111354;28;20108;-73
2023/09/02 14:36:33;;;;;;;1.52;0.40;;;39.50;50.20;;;;;;5108656;28;20101;-78
2023/09/02 14:39:19;;;;;;;2.40;0.70;;;40.00;49.30;;;;;;5109546;28;20048;-76
2023/09/02 14:42:06;;;;;;;1.90;0.50;;;40.00;49.00;;;;;;5111373;28;20117;-72